Time;durP1;ratioP1;P1;durP2;ratioP2;P2;SDS_P1;SDS_P2;PMS_P1;PMS_P2;Temp;Humidity;BMP_temperature;BMP_pressure;BME280_temperature;BME280_humidity;BME280_pressure;Samples;Min_cycle;Max_cycle;Signal;HPM_P1;HPM_P2
2022/08/02 00:00:18;;;;;;;;;;;17.10;82.60;;;;;;5051713;28;20343;-86
2022/08/02 00:02:44;;;;;;;;;;;17.00;82.60;;;;;;5063154;28;19923;-87
2022/08/02 00:05:13;;;;;;;;;;;17.00;82.60;;;;;;5051733;28;19923;-86
2022/08/02 00:07:46;;;;;;;;;;;17.00;83.00;;;;;;5063821;28;19981;-86
2022/08/02 00:10:14;;;;;;;;;;;16.90;83.60;;;;;;5073422;28;19995;-88
2022/08/02 00:12:40;;;;;;;;;;;16.90;83.90;;;;;;5054149;28;19912;-87
2022/08/02 00:15:06;;;;;;;;;;;17.00;83.80;;;;;;5052171;28;19916;-86
2022/08/02 00:17:31;;;;;;;;;;;17.00;83.70;;;;;;5074597;28;20390;-87
2022/08/02 00:19:57;;;;;;;;;;;17.00;83.70;;;;;;5054403;28;19920;-87
2022/08/02 00:22:22;;;;;;;;;;;17.00;83.30;;;;;;5056286;28;19920;-88
2022/08/02 00:24:48;;;;;;;;;;;17.00;83.40;;;;;;5047966;28;19939;-86
2022/08/02 00:27:13;;;;;;;;;;;17.00;83.50;;;;;;5049132;28;20079;-87
2022/08/02 00:29:39;;;;;;;;;;;17.00;83.30;;;;;;5050381;28;19913;-87
2022/08/02 00:32:04;;;;;;;;;;;17.00;83.30;;;;;;5072454;28;19913;-86
2022/08/02 00:34:30;;;;;;;;;;;17.00;83.10;;;;;;5067437;28;20401;-87
2022/08/02 00:36:55;;;;;;;;;;;16.90;83.10;;;;;;5051037;28;19916;-87
2022/08/02 00:39:21;;;;;;;;;;;16.90;83.40;;;;;;5048352;28;19913;-87
2022/08/02 00:41:47;;;;;;;;;;;16.90;83.00;;;;;;5083432;28;20432;-86
2022/08/02 00:44:14;;;;;;;;;;;16.80;82.80;;;;;;5075435;28;19902;-87
2022/08/02 00:46:39;;;;;;;;;;;16.70;83.30;;;;;;5075246;28;20122;-86
2022/08/02 00:49:05;;;;;;;;;;;16.50;83.60;;;;;;5058778;28;19917;-86
2022/08/02 00:51:30;;;;;;;;;;;16.50;83.70;;;;;;5078138;28;19923;-86
2022/08/02 00:53:55;;;;;;;;;;;16.60;83.40;;;;;;5074720;28;19944;-85
2022/08/02 00:56:21;;;;;;;;;;;16.60;83.50;;;;;;5068501;28;19923;-86
2022/08/02 00:58:47;;;;;;;;;;;16.60;84.00;;;;;;5049705;28;19956;-86
2022/08/02 01:01:13;;;;;;;;;;;16.60;84.20;;;;;;5043019;28;19913;-86
2022/08/02 01:03:39;;;;;;;;;;;16.60;84.20;;;;;;5046607;28;19951;-86
2022/08/02 01:06:04;;;;;;;;;;;16.60;84.20;;;;;;5050630;28;20012;-87
2022/08/02 01:08:30;;;;;;;;;;;16.60;84.30;;;;;;5056786;28;19964;-87
2022/08/02 01:10:55;;;;;;;;;;;16.70;84.20;;;;;;5051667;28;19912;-86
2022/08/02 01:13:21;;;;;;;;;;;16.70;84.10;;;;;;5055727;28;19919;-87
2022/08/02 01:15:51;;;;;;;;;;;16.70;83.70;;;;;;5048527;28;19944;-86
2022/08/02 01:18:24;;;;;;;;;;;16.60;83.30;;;;;;5045038;28;19912;-86
2022/08/02 01:21:08;;;;;;;;;;;16.60;83.40;;;;;;5055592;28;19912;-86
2022/08/02 01:24:09;;;;;;;;;;;16.50;83.40;;;;;;5068376;28;19928;-87
2022/08/02 01:26:53;;;;;;;;;;;16.40;84.10;;;;;;4991829;28;19922;-87
2022/08/02 01:29:30;;;;;;;;;;;16.50;84.00;;;;;;5043167;28;19917;-87
2022/08/02 01:31:58;;;;;;;;;;;16.50;83.70;;;;;;5053839;28;20343;-87
2022/08/02 01:34:31;;;;;;;;;;;16.50;83.80;;;;;;5047002;28;19913;-86
2022/08/02 01:36:59;;;;;;;;;;;16.40;83.80;;;;;;5064524;28;19970;-86
2022/08/02 01:39:26;;;;;;;;;;;16.40;83.90;;;;;;5058757;28;19912;-87
2022/08/02 01:41:52;;;;;;;;;;;16.30;84.70;;;;;;5067613;28;19928;-88
2022/08/02 01:44:19;;;;;;;;;;;16.50;84.50;;;;;;5076397;28;19984;-87
2022/08/02 01:46:45;;;;;;;;;;;16.50;84.30;;;;;;5075942;28;19913;-86
2022/08/02 01:49:13;;;;;;;;;;;16.50;84.50;;;;;;5073836;28;19916;-87
2022/08/02 01:54:25;;;;;;;;;;;16.50;84.10;;;;;;5067321;28;19942;-86
2022/08/02 01:56:51;;;;;;;;;;;16.50;83.90;;;;;;5075047;28;19920;-86
2022/08/02 01:59:19;;;;;;;;;;;16.40;83.60;;;;;;5050597;28;19969;-86
2022/08/02 02:01:46;;;;;;;;;;;16.30;83.50;;;;;;5045781;28;19913;-86
2022/08/02 02:04:13;;;;;;;;;;;16.40;83.50;;;;;;5046676;28;20555;-87
2022/08/02 02:06:39;;;;;;;;;;;16.40;83.60;;;;;;5071656;28;19920;-86
2022/08/02 02:09:05;;;;;;;;;;;16.30;83.70;;;;;;5051825;28;19920;-86
2022/08/02 02:11:31;;;;;;;;;;;16.30;84.30;;;;;;5047091;28;19913;-87
2022/08/02 02:13:59;;;;;;;;;;;16.20;83.80;;;;;;5067705;28;19924;-86
2022/08/02 02:16:26;;;;;;;;;;;16.30;83.80;;;;;;5058293;28;19912;-86
2022/08/02 02:18:52;;;;;;;;;;;16.20;84.00;;;;;;5065856;28;19916;-87
2022/08/02 02:21:17;;;;;;;;;;;16.10;84.50;;;;;;5067825;28;19956;-87
2022/08/02 02:23:43;;;;;;;;;;;16.10;84.50;;;;;;5055243;28;19935;-87
2022/08/02 02:26:10;;;;;;;;;;;16.10;84.60;;;;;;5052424;28;20366;-87
2022/08/02 02:28:36;;;;;;;;;;;16.00;84.80;;;;;;5053439;28;19927;-88
2022/08/02 02:31:12;;;;;;;;;;;16.00;84.60;;;;;;5051122;28;19917;-86
2022/08/02 02:33:45;;;;;;;;;;;16.00;84.60;;;;;;5061767;28;20349;-87
2022/08/02 02:36:12;;;;;;;;;;;16.00;84.40;;;;;;5058961;28;19918;-87
2022/08/02 02:38:38;;;;;;;;;;;16.00;85.20;;;;;;5058363;28;19913;-88
2022/08/02 02:41:05;;;;;;;;;;;16.00;85.10;;;;;;5052031;28;19912;-87
2022/08/02 02:43:31;;;;;;;;;;;16.00;84.60;;;;;;5057296;28;20079;-87
2022/08/02 02:45:57;;;;;;;;;;;15.90;84.70;;;;;;5057564;28;20045;-86
2022/08/02 02:48:24;;;;;;;;;;;16.00;84.80;;;;;;5040744;28;20010;-87
2022/08/02 02:50:49;;;;;;;;;;;15.90;84.90;;;;;;5045107;28;19988;-86
2022/08/02 02:53:17;;;;;;;;;;;15.90;84.70;;;;;;5054755;28;20001;-86
2022/08/02 02:55:42;;;;;;;;;;;15.90;84.80;;;;;;5051055;28;19912;-87
2022/08/02 02:58:08;;;;;;;;;;;15.80;84.70;;;;;;5049422;28;19912;-86
2022/08/02 03:03:19;;;;;;;;;;;15.80;84.80;;;;;;5086552;28;20037;-86
2022/08/02 03:05:44;;;;;;;;;;;15.90;84.60;;;;;;5060297;28;19969;-87
2022/08/02 03:08:10;;;;;;;;;;;15.70;84.80;;;;;;5065113;28;20477;-86
2022/08/02 03:10:36;;;;;;;;;;;15.80;84.50;;;;;;5049276;28;19924;-87
2022/08/02 03:13:01;;;;;;;;;;;15.80;84.40;;;;;;5046243;28;20243;-87
2022/08/02 03:15:27;;;;;;;;;;;15.70;84.50;;;;;;5054868;28;19913;-87
2022/08/02 03:17:53;;;;;;;;;;;15.80;84.50;;;;;;5044053;28;19920;-87
2022/08/02 03:20:19;;;;;;;;;;;15.70;84.80;;;;;;5042016;28;20000;-87
2022/08/02 03:22:45;;;;;;;;;;;15.80;84.60;;;;;;5052739;28;19998;-87
2022/08/02 03:25:11;;;;;;;;;;;15.70;84.60;;;;;;5040769;28;19921;-87
2022/08/02 03:27:36;;;;;;;;;;;15.80;84.70;;;;;;5047841;28;19931;-87
2022/08/02 03:30:03;;;;;;;;;;;15.80;84.80;;;;;;5051297;28;19912;-85
2022/08/02 03:32:29;;;;;;;;;;;15.80;84.70;;;;;;5051648;28;19913;-86
2022/08/02 03:34:54;;;;;;;;;;;15.80;84.80;;;;;;5047111;28;19909;-86
2022/08/02 03:37:20;;;;;;;;;;;15.80;85.00;;;;;;5049526;28;19917;-86
2022/08/02 03:39:47;;;;;;;;;;;15.70;84.90;;;;;;5038926;28;19967;-86
2022/08/02 03:42:12;;;;;;;;;;;15.70;85.20;;;;;;5074577;28;19925;-88
2022/08/02 03:44:38;;;;;;;;;;;15.70;85.30;;;;;;5062416;28;19928;-86
2022/08/02 03:47:04;;;;;;;;;;;15.60;85.10;;;;;;5048168;28;20007;-86
2022/08/02 03:49:30;;;;;;;;;;;15.70;84.70;;;;;;5045412;28;19913;-87
2022/08/02 03:51:56;;;;;;;;;;;15.70;84.50;;;;;;5048632;28;19913;-86
2022/08/02 03:54:22;;;;;;;;;;;15.60;84.70;;;;;;5045731;28;19923;-86
2022/08/02 03:56:47;;;;;;;;;;;15.60;85.10;;;;;;5040025;28;20346;-86
2022/08/02 03:59:13;;;;;;;;;;;15.60;85.00;;;;;;5045254;28;19920;-86
2022/08/02 04:01:39;;;;;;;;;;;15.50;85.70;;;;;;5062018;28;19912;-87
2022/08/02 04:04:05;;;;;;;;;;;15.60;85.40;;;;;;5063928;28;19924;-86
2022/08/02 04:06:30;;;;;;;;;;;15.50;85.50;;;;;;5067152;28;19920;-86
2022/08/02 04:08:56;;;;;;;;;;;15.50;85.60;;;;;;5050546;28;19916;-87
2022/08/02 04:11:30;;;;;;;;;;;15.60;85.60;;;;;;5059054;28;19995;-86
2022/08/02 04:14:06;;;;;;;;;;;15.60;85.10;;;;;;5042761;28;20295;-86
2022/08/02 04:16:45;;;;;;;;;;;15.60;85.40;;;;;;5047676;28;19916;-84
2022/08/02 04:19:13;;;;;;;;;;;15.70;85.40;;;;;;5047341;28;20003;-87
2022/08/02 04:21:40;;;;;;;;;;;15.70;85.50;;;;;;5063481;28;19920;-87
2022/08/02 04:24:07;;;;;;;;;;;15.80;85.50;;;;;;5061749;28;19977;-87
2022/08/02 04:26:33;;;;;;;;;;;15.70;85.40;;;;;;5047812;28;19913;-86
2022/08/02 04:28:59;;;;;;;;;;;15.80;85.20;;;;;;5062865;28;19932;-86
2022/08/02 04:31:25;;;;;;;;;;;15.80;85.20;;;;;;5068801;28;19912;-84
2022/08/02 04:33:51;;;;;;;;;;;15.80;85.40;;;;;;5069058;28;19923;-85
2022/08/02 04:36:16;;;;;;;;;;;15.70;85.60;;;;;;5066120;28;19916;-83
2022/08/02 04:38:42;;;;;;;;;;;15.80;85.50;;;;;;5048137;28;19956;-84
2022/08/02 04:41:07;;;;;;;;;;;15.90;85.30;;;;;;5051238;28;19909;-83
2022/08/02 04:43:33;;;;;;;;;;;15.90;85.60;;;;;;5063837;28;19958;-83
2022/08/02 04:46:01;;;;;;;;;;;15.90;85.70;;;;;;5047577;28;19994;-85
2022/08/02 04:48:27;;;;;;;;;;;16.00;86.00;;;;;;5046187;28;19999;-85
2022/08/02 04:50:52;;;;;;;;;;;16.10;85.90;;;;;;5067132;28;20323;-83
2022/08/02 04:53:18;;;;;;;;;;;16.20;86.00;;;;;;5053762;28;19919;-83
2022/08/02 04:55:44;;;;;;;;;;;16.20;86.30;;;;;;5071006;28;19932;-83
2022/08/02 04:58:09;;;;;;;;;;;16.30;86.40;;;;;;5047060;28;19919;-87
2022/08/02 05:00:35;;;;;;;;;;;16.30;86.50;;;;;;5049181;28;20003;-84
2022/08/02 05:03:00;;;;;;;;;;;16.30;86.60;;;;;;5070651;28;20268;-83
2022/08/02 05:05:26;;;;;;;;;;;16.40;86.40;;;;;;5063891;28;19979;-87
2022/08/02 05:07:51;;;;;;;;;;;16.50;86.60;;;;;;5088387;28;19924;-83
2022/08/02 05:10:17;;;;;;;;;;;16.60;86.60;;;;;;5069145;28;20397;-84
2022/08/02 05:12:43;;;;;;;;;;;16.60;86.60;;;;;;5090740;28;19928;-82
2022/08/02 05:15:10;;;;;;;;;;;16.70;86.50;;;;;;5073049;28;19917;-83
2022/08/02 05:17:35;;;;;;;;;;;16.70;86.20;;;;;;5060270;28;20003;-82
2022/08/02 05:20:01;;;;;;;;;;;16.80;86.30;;;;;;5078581;28;19955;-83
2022/08/02 05:22:26;;;;;;;;;;;16.90;85.90;;;;;;5070488;28;19970;-83
2022/08/02 05:24:52;;;;;;;;;;;16.90;86.10;;;;;;5064557;28;19916;-82
2022/08/02 05:27:17;;;;;;;;;;;17.00;85.70;;;;;;5082487;28;19908;-82
2022/08/02 05:29:43;;;;;;;;;;;17.10;85.60;;;;;;5070879;28;19999;-82
2022/08/02 05:32:08;;;;;;;;;;;17.10;85.50;;;;;;5065720;28;19919;-82
2022/08/02 05:34:34;;;;;;;;;;;17.20;85.30;;;;;;5044107;28;19955;-83
2022/08/02 05:36:59;;;;;;;;;;;17.20;85.10;;;;;;5070111;28;19969;-83
2022/08/02 05:39:24;;;;;;;;;;;17.20;85.30;;;;;;5066771;28;19915;-82
2022/08/02 05:41:50;;;;;;;;;;;17.20;85.40;;;;;;5049492;28;19968;-81
2022/08/02 05:44:15;;;;;;;;;;;17.20;85.40;;;;;;5048919;28;19913;-82
2022/08/02 05:46:41;;;;;;;;;;;17.20;85.30;;;;;;5056395;28;20334;-82
2022/08/02 05:49:06;;;;;;;;;;;17.30;85.20;;;;;;5050796;28;20006;-81
2022/08/02 05:51:36;;;;;;;;;;;17.30;85.00;;;;;;5037636;28;19909;-83
2022/08/02 05:54:08;;;;;;;;;;;17.30;85.40;;;;;;5043421;28;19940;-83
2022/08/02 05:56:50;;;;;;;;;;;17.30;85.30;;;;;;5050495;28;19917;-83
2022/08/02 05:59:22;;;;;;;;;;;17.50;85.00;;;;;;5039816;28;19916;-83
2022/08/02 06:01:47;;;;;;;;;;;17.60;84.90;;;;;;5055584;28;19912;-82
2022/08/02 06:04:19;;;;;;;;;;;17.80;83.90;;;;;;5043125;28;20428;-82
2022/08/02 06:06:47;;;;;;;;;;;17.80;84.00;;;;;;5048921;28;19912;-83
2022/08/02 06:09:17;;;;;;;;;;;18.00;83.90;;;;;;5048146;28;20050;-83
2022/08/02 06:11:48;;;;;;;;;;;18.10;83.60;;;;;;5048945;28;19939;-83
2022/08/02 06:14:13;;;;;;;;;;;18.20;82.80;;;;;;5050907;28;19952;-83
2022/08/02 06:16:39;;;;;;;;;;;18.30;82.50;;;;;;5054660;28;20003;-83
2022/08/02 06:19:05;;;;;;;;;;;18.50;82.00;;;;;;5067640;28;19916;-83
2022/08/02 06:21:31;;;;;;;;;;;18.50;82.50;;;;;;5048001;28;20016;-83
2022/08/02 06:23:57;;;;;;;;;;;18.60;82.50;;;;;;5062057;28;19909;-83
2022/08/02 06:26:23;;;;;;;;;;;18.90;81.30;;;;;;5046213;28;20367;-83
2022/08/02 06:28:50;;;;;;;;;;;19.20;80.20;;;;;;5069917;28;19916;-83
2022/08/02 06:31:16;;;;;;;;;;;19.20;80.50;;;;;;5067841;28;19916;-83
2022/08/02 06:33:42;;;;;;;;;;;19.20;80.50;;;;;;5058969;28;19917;-84
2022/08/02 06:36:08;;;;;;;;;;;19.30;80.00;;;;;;5065733;28;19975;-83
2022/08/02 06:38:54;;;;;;;;;;;19.30;79.90;;;;;;5057274;28;19921;-84
2022/08/02 06:41:23;;;;;;;;;;;19.60;78.80;;;;;;5064143;28;19905;-82
2022/08/02 06:43:58;;;;;;;;;;;19.70;78.90;;;;;;5068549;28;19924;-84
2022/08/02 06:46:26;;;;;;;;;;;19.60;79.20;;;;;;5066775;28;19928;-86
2022/08/02 06:48:51;;;;;;;;;;;19.70;78.70;;;;;;5056021;28;19921;-85
2022/08/02 06:51:17;;;;;;;;;;;19.80;78.20;;;;;;5044103;28;19919;-84
2022/08/02 06:53:43;;;;;;;;;;;19.60;78.20;;;;;;5065896;28;19908;-83
2022/08/02 06:56:08;;;;;;;;;;;19.70;78.40;;;;;;5046971;28;19921;-84
2022/08/02 06:58:34;;;;;;;;;;;19.60;78.10;;;;;;5059332;28;19916;-83
2022/08/02 07:00:59;;;;;;;;;;;19.60;78.20;;;;;;5048858;28;20372;-82
2022/08/02 07:03:25;;;;;;;;;;;19.70;78.10;;;;;;5056045;28;20247;-83
2022/08/02 07:05:51;;;;;;;;;;;19.60;78.00;;;;;;5071016;28;19913;-84
2022/08/02 07:08:17;;;;;;;;;;;19.80;77.90;;;;;;5040402;28;19988;-84
2022/08/02 07:10:42;;;;;;;;;;;19.80;78.80;;;;;;5048209;28;19909;-83
2022/08/02 07:13:08;;;;;;;;;;;20.00;77.10;;;;;;5067111;28;19999;-82
2022/08/02 07:15:35;;;;;;;;;;;20.10;76.90;;;;;;5072087;28;22246;-83
2022/08/02 07:18:01;;;;;;;;;;;20.00;76.80;;;;;;5067157;28;20012;-83
2022/08/02 07:20:27;;;;;;;;;;;20.10;75.50;;;;;;5069744;28;20015;-83
2022/08/02 07:22:52;;;;;;;;;;;20.20;74.80;;;;;;5051065;28;19963;-84
2022/08/02 07:25:18;;;;;;;;;;;20.20;74.80;;;;;;5061322;28;19916;-83
2022/08/02 07:27:44;;;;;;;;;;;20.30;75.10;;;;;;5066640;28;19921;-84
2022/08/02 07:30:15;;;;;;;;;;;20.30;74.50;;;;;;5074274;28;19919;-86
2022/08/02 07:32:41;;;;;;;;;;;20.30;73.90;;;;;;5041702;28;20000;-86
2022/08/02 07:35:07;;;;;;;;;;;20.50;74.60;;;;;;5052333;28;19963;-84
2022/08/02 07:37:33;;;;;;;;;;;20.50;74.20;;;;;;5054649;28;19920;-83
2022/08/02 07:39:58;;;;;;;;;;;20.50;74.50;;;;;;5066251;28;20037;-84
2022/08/02 07:42:24;;;;;;;;;;;20.50;74.20;;;;;;5082184;28;19900;-83
2022/08/02 07:44:50;;;;;;;;;;;20.60;73.50;;;;;;5087032;28;19920;-79
2022/08/02 07:47:15;;;;;;;;;;;20.80;72.50;;;;;;5069575;28;19962;-78
2022/08/02 07:49:40;;;;;;;;;;;20.90;72.80;;;;;;5055475;28;19913;-80
2022/08/02 07:52:06;;;;;;;;;;;21.00;72.40;;;;;;5067968;28;19935;-81
2022/08/02 07:54:31;;;;;;;;;;;21.00;72.00;;;;;;5073801;28;19915;-83
2022/08/02 07:57:09;;;;;;;;;;;21.10;71.70;;;;;;5052736;28;19912;-87
2022/08/02 07:59:35;;;;;;;;;;;21.10;72.20;;;;;;5073883;28;19926;-82
2022/08/02 08:02:00;;;;;;;;;;;21.20;72.10;;;;;;5080057;28;19947;-82
2022/08/02 08:04:26;;;;;;;;;;;21.50;71.60;;;;;;5072211;28;19912;-81
2022/08/02 08:06:52;;;;;;;;;;;21.60;70.90;;;;;;5069373;28;19923;-82
2022/08/02 08:09:18;;;;;;;;;;;21.60;71.20;;;;;;5053026;28;20391;-82
2022/08/02 08:11:44;;;;;;;;;;;21.60;70.80;;;;;;5066781;28;19928;-79
2022/08/02 08:14:09;;;;;;;;;;;21.60;71.50;;;;;;5065868;28;20023;-81
2022/08/02 08:16:35;;;;;;;;;;;21.60;70.20;;;;;;5042614;28;20256;-81
2022/08/02 08:19:01;;;;;;;;;;;21.80;70.00;;;;;;5069882;28;19923;-81
2022/08/02 08:21:27;;;;;;;;;;;22.00;68.20;;;;;;5053334;28;20401;-81
2022/08/02 08:23:52;;;;;;;;;;;22.00;66.10;;;;;;5049084;28;20003;-81
2022/08/02 08:26:17;;;;;;;;;;;22.10;65.20;;;;;;5045826;28;19909;-83
2022/08/02 08:28:43;;;;;;;;;;;22.20;63.50;;;;;;5044965;28;19913;-82
2022/08/02 08:31:08;;;;;;;;;;;22.20;62.70;;;;;;5056117;28;19922;-80
2022/08/02 08:33:34;;;;;;;;;;;22.50;63.50;;;;;;5066370;28;19913;-83
2022/08/02 08:35:59;;;;;;;;;;;22.60;62.00;;;;;;5054705;28;19913;-83
2022/08/02 08:38:25;;;;;;;;;;;22.70;60.70;;;;;;5079071;28;19924;-82
2022/08/02 08:40:50;;;;;;;;;;;22.70;60.50;;;;;;5054426;28;19909;-83
2022/08/02 08:43:16;;;;;;;;;;;22.80;60.00;;;;;;5057403;28;19912;-83
2022/08/02 08:45:45;;;;;;;;;;;22.90;59.40;;;;;;5078449;28;19923;-83
2022/08/02 08:48:12;;;;;;;;;;;22.90;61.40;;;;;;5069472;28;19916;-83
2022/08/02 08:50:45;;;;;;;;;;;23.00;57.70;;;;;;5084354;28;19914;-84
2022/08/02 08:53:10;;;;;;;;;;;23.10;59.00;;;;;;5062140;28;19912;-83
2022/08/02 08:55:36;;;;;;;;;;;23.10;58.10;;;;;;5072610;28;19912;-83
2022/08/02 08:58:02;;;;;;;;;;;23.10;58.10;;;;;;5076899;28;20377;-81
2022/08/02 09:00:31;;;;;;;;;;;23.10;58.30;;;;;;5079181;28;19966;-83
2022/08/02 09:02:57;;;;;;;;;;;23.30;58.30;;;;;;5078827;28;19965;-83
2022/08/02 09:05:24;;;;;;;;;;;23.40;59.00;;;;;;5066998;28;19916;-82
2022/08/02 09:07:50;;;;;;;;;;;23.60;58.50;;;;;;5054935;28;19924;-83
2022/08/02 09:10:35;;;;;;;;;;;23.50;58.70;;;;;;5051916;28;20015;-84
2022/08/02 09:13:09;;;;;;;;;;;23.60;58.00;;;;;;5071686;28;20399;-85
2022/08/02 09:15:35;;;;;;;;;;;23.70;56.30;;;;;;5055005;28;19924;-84
2022/08/02 09:18:02;;;;;;;;;;;23.80;55.90;;;;;;5051026;28;19923;-83
2022/08/02 09:20:27;;;;;;;;;;;23.70;55.80;;;;;;5053771;28;19916;-83
2022/08/02 09:23:04;;;;;;;;;;;23.80;56.10;;;;;;5068991;28;19919;-83
2022/08/02 09:25:30;;;;;;;;;;;24.00;55.30;;;;;;5048325;28;20342;-85
2022/08/02 09:27:55;;;;;;;;;;;24.20;55.40;;;;;;5075501;28;19999;-84
2022/08/02 09:30:21;;;;;;;;;;;24.20;54.60;;;;;;5049263;28;19921;-84
2022/08/02 09:32:48;;;;;;;;;;;24.20;54.60;;;;;;5053689;28;19954;-84
2022/08/02 09:35:29;;;;;;;;;;;24.10;55.00;;;;;;5049820;28;19944;-84
2022/08/02 09:38:06;;;;;;;;;;;24.20;55.10;;;;;;5059649;28;19923;-85
2022/08/02 09:40:39;;;;;;;;;;;24.30;54.40;;;;;;5044662;28;19909;-84
2022/08/02 09:43:05;;;;;;;;;;;24.30;54.80;;;;;;5064282;28;19904;-84
2022/08/02 09:45:33;;;;;;;;;;;24.30;55.70;;;;;;5066368;28;20062;-85
2022/08/02 09:48:08;;;;;;;;;;;24.40;55.00;;;;;;5051682;28;19935;-84
2022/08/02 09:50:38;;;;;;;;;;;24.50;54.30;;;;;;5075531;28;19939;-84
2022/08/02 09:53:03;;;;;;;;;;;24.50;55.40;;;;;;5046071;28;19931;-83
2022/08/02 09:55:29;;;;;;;;;;;24.60;54.90;;;;;;5058572;28;19920;-86
2022/08/02 09:57:54;;;;;;;;;;;24.70;55.10;;;;;;5048518;28;19913;-83
2022/08/02 10:00:20;;;;;;;;;;;24.70;55.40;;;;;;5055146;28;19913;-83
2022/08/02 10:03:05;;;;;;;;;;;24.80;54.70;;;;;;5073226;28;19913;-83
2022/08/02 10:05:43;;;;;;;;;;;25.00;55.00;;;;;;5088482;28;19908;-81
2022/08/02 10:08:09;;;;;;;;;;;25.10;54.50;;;;;;5066736;28;19928;-84
2022/08/02 10:10:34;;;;;;;;;;;25.20;54.10;;;;;;5069764;28;19924;-85
2022/08/02 10:13:00;;;;;;;;;;;25.20;53.80;;;;;;5054494;28;19916;-84
2022/08/02 10:15:25;;;;;;;;;;;25.20;53.80;;;;;;5048411;28;19931;-84
2022/08/02 10:17:51;;;;;;;;;;;25.20;54.00;;;;;;5074220;28;20349;-84
2022/08/02 10:20:16;;;;;;;;;;;25.30;54.00;;;;;;5065573;28;19908;-83
2022/08/02 10:22:42;;;;;;;;;;;25.30;54.50;;;;;;5043217;28;20015;-85
2022/08/02 10:25:08;;;;;;;;;;;25.40;53.70;;;;;;5047536;28;19912;-84
2022/08/02 10:27:34;;;;;;;;;;;25.20;56.10;;;;;;5045974;28;19909;-85
2022/08/02 10:30:00;;;;;;;;;;;25.30;54.20;;;;;;5041461;28;19916;-85
2022/08/02 10:32:28;;;;;;;;;;;25.50;54.90;;;;;;5045468;28;20421;-86
2022/08/02 10:34:57;;;;;;;;;;;25.60;53.20;;;;;;5067838;28;19913;-86
2022/08/02 10:37:27;;;;;;;;;;;25.80;53.00;;;;;;5053552;28;19966;-85
2022/08/02 10:39:54;;;;;;;;;;;25.70;53.40;;;;;;5054372;28;19995;-86
2022/08/02 10:42:39;;;;;;;;;;;25.80;54.00;;;;;;5069400;28;19917;-86
2022/08/02 10:45:08;;;;;;;;;;;25.80;54.10;;;;;;5049486;28;19912;-86
2022/08/02 10:47:34;;;;;;;;;;;25.70;53.20;;;;;;5074281;28;19955;-86
2022/08/02 10:49:59;;;;;;;;;;;25.60;53.50;;;;;;5067195;28;19913;-86
2022/08/02 10:52:29;;;;;;;;;;;25.70;53.40;;;;;;5050512;28;20620;-86
2022/08/02 10:55:10;;;;;;;;;;;25.60;53.30;;;;;;5056186;28;19920;-86
2022/08/02 10:57:35;;;;;;;;;;;25.60;53.60;;;;;;5044403;28;19908;-86
2022/08/02 11:00:12;;;;;;;;;;;25.70;53.70;;;;;;5042288;28;19919;-86
2022/08/02 11:02:42;;;;;;;;;;;25.70;53.20;;;;;;5050932;28;19912;-86
2022/08/02 11:05:17;;;;;;;;;;;25.70;53.40;;;;;;5048710;28;19913;-85
2022/08/02 11:07:43;;;;;;;;;;;26.00;52.30;;;;;;5053038;28;20320;-86
2022/08/02 11:10:23;;;;;;;;;;;26.00;52.30;;;;;;5053327;28;19919;-85
2022/08/02 11:13:00;;;;;;;;;;;26.20;51.80;;;;;;5058121;28;20303;-85
2022/08/02 11:15:25;;;;;;;;;;;26.30;51.90;;;;;;5072844;28;19936;-86
2022/08/02 11:18:01;;;;;;;;;;;26.20;52.10;;;;;;5063148;28;19897;-85
2022/08/02 11:20:27;;;;;;;;;;;26.30;52.00;;;;;;5063279;28;20306;-84
2022/08/02 11:22:53;;;;;;;;;;;26.10;51.90;;;;;;5073220;28;19917;-83
2022/08/02 11:25:25;;;;;;;;;;;26.10;51.30;;;;;;5067392;28;19913;-85
2022/08/02 11:27:58;;;;;;;;;;;26.00;52.60;;;;;;5055718;28;19917;-85
2022/08/02 11:30:24;;;;;;;;;;;26.10;52.50;;;;;;5066360;28;20008;-84
2022/08/02 11:32:49;;;;;;;;;;;26.00;52.30;;;;;;5044048;28;19944;-84
2022/08/02 11:35:15;;;;;;;;;;;26.00;52.40;;;;;;5044241;28;20005;-84
2022/08/02 11:37:42;;;;;;;;;;;26.00;52.50;;;;;;5044965;28;20007;-85
2022/08/02 11:40:09;;;;;;;;;;;26.00;52.50;;;;;;5062443;28;19912;-85
2022/08/02 11:42:35;;;;;;;;;;;26.20;52.00;;;;;;5046414;28;20007;-85
2022/08/02 11:45:02;;;;;;;;;;;26.30;51.60;;;;;;5045912;28;19987;-84
2022/08/02 11:47:30;;;;;;;;;;;26.50;52.00;;;;;;5042975;28;19984;-84
2022/08/02 11:50:05;;;;;;;;;;;26.50;51.90;;;;;;5042245;28;19978;-84
2022/08/02 11:52:34;;;;;;;;;;;26.50;51.70;;;;;;5042860;28;19913;-85
2022/08/02 11:55:00;;;;;;;;;;;26.60;51.20;;;;;;5044883;28;19913;-85
2022/08/02 11:57:26;;;;;;;;;;;26.60;51.50;;;;;;5049044;28;19943;-83
2022/08/02 11:59:52;;;;;;;;;;;26.60;51.40;;;;;;5052936;28;20467;-83
2022/08/02 12:02:18;;;;;;;;;;;26.60;50.80;;;;;;5046242;28;20272;-85
2022/08/02 12:04:50;;;;;;;;;;;26.70;51.60;;;;;;5067932;28;19971;-83
2022/08/02 12:07:16;;;;;;;;;;;26.70;51.80;;;;;;5047910;28;19913;-83
2022/08/02 12:09:41;;;;;;;;;;;26.80;51.20;;;;;;5055244;28;20034;-84
2022/08/02 12:12:07;;;;;;;;;;;27.00;51.10;;;;;;5060585;28;19971;-83
2022/08/02 12:14:40;;;;;;;;;;;27.00;51.60;;;;;;5050448;28;19932;-83
2022/08/02 12:19:50;;;;;;;;;;;27.20;51.00;;;;;;5080061;28;19983;-83
2022/08/02 12:22:22;;;;;;;;;;;27.10;51.50;;;;;;5062652;28;19917;-83
2022/08/02 12:24:49;;;;;;;;;;;27.10;51.40;;;;;;5073723;28;19903;-81
2022/08/02 12:27:31;;;;;;;;;;;27.00;51.40;;;;;;5072791;28;20598;-81
2022/08/02 12:29:58;;;;;;;;;;;27.10;51.70;;;;;;5058803;28;20445;-83
2022/08/02 12:32:24;;;;;;;;;;;27.10;50.80;;;;;;5052243;28;19940;-82
2022/08/02 12:34:59;;;;;;;;;;;27.10;51.00;;;;;;5053295;28;19913;-81
2022/08/02 12:37:25;;;;;;;;;;;27.10;51.20;;;;;;5045006;28;20359;-83
2022/08/02 12:39:52;;;;;;;;;;;27.20;51.20;;;;;;5052333;28;19955;-83
2022/08/02 12:42:18;;;;;;;;;;;27.20;49.60;;;;;;5053481;28;19920;-83
2022/08/02 12:44:51;;;;;;;;;;;27.40;50.10;;;;;;5047859;28;19913;-83
2022/08/02 12:47:16;;;;;;;;;;;27.50;50.20;;;;;;5057491;28;20020;-83
2022/08/02 12:49:42;;;;;;;;;;;27.60;48.80;;;;;;5085283;28;19970;-82
2022/08/02 12:52:20;;;;;;;;;;;27.50;49.10;;;;;;5085663;28;19920;-83
2022/08/02 12:54:47;;;;;;;;;;;27.60;48.40;;;;;;5058772;28;19913;-82
2022/08/02 12:57:14;;;;;;;;;;;27.60;49.30;;;;;;5053695;28;19912;-86
2022/08/02 12:59:40;;;;;;;;;;;27.60;49.30;;;;;;5059791;28;19913;-83
2022/08/02 13:02:07;;;;;;;;;;;27.80;48.80;;;;;;5056140;28;19986;-82
2022/08/02 13:04:33;;;;;;;;;;;27.90;48.30;;;;;;5081248;28;19931;-84
2022/08/02 13:06:59;;;;;;;;;;;28.00;48.10;;;;;;5076383;28;19912;-84
2022/08/02 13:09:24;;;;;;;;;;;28.00;47.20;;;;;;5081250;28;19942;-83
2022/08/02 13:11:50;;;;;;;;;;;28.10;46.70;;;;;;5051971;28;19909;-84
2022/08/02 13:14:15;;;;;;;;;;;28.10;46.90;;;;;;5045651;28;19923;-84
2022/08/02 13:16:42;;;;;;;;;;;28.10;47.30;;;;;;5055184;28;19920;-84
2022/08/02 13:19:07;;;;;;;;;;;28.10;47.20;;;;;;5052135;28;19912;-84
2022/08/02 13:21:33;;;;;;;;;;;28.10;46.00;;;;;;5071623;28;19919;-84
2022/08/02 13:23:58;;;;;;;;;;;28.10;46.30;;;;;;5054494;28;20003;-84
2022/08/02 13:26:25;;;;;;;;;;;28.10;47.50;;;;;;5052392;28;20658;-84
2022/08/02 13:28:50;;;;;;;;;;;28.00;47.30;;;;;;5054866;28;19966;-83
2022/08/02 13:31:16;;;;;;;;;;;28.10;47.10;;;;;;5052052;28;19952;-84
2022/08/02 13:33:41;;;;;;;;;;;28.10;46.30;;;;;;5052407;28;19917;-83
2022/08/02 13:36:07;;;;;;;;;;;28.10;46.60;;;;;;5072364;28;19923;-84
2022/08/02 13:38:32;;;;;;;;;;;28.10;46.60;;;;;;5068846;28;19920;-82
2022/08/02 13:41:11;;;;;;;;;;;28.00;47.30;;;;;;5052287;28;19913;-87
2022/08/02 13:43:37;;;;;;;;;;;28.00;47.60;;;;;;5052599;28;19913;-85
2022/08/02 13:46:03;;;;;;;;;;;28.00;46.30;;;;;;5051594;28;20441;-84
2022/08/02 13:48:29;;;;;;;;;;;27.90;46.30;;;;;;5052532;28;19924;-86
2022/08/02 13:50:54;;;;;;;;;;;28.00;46.70;;;;;;5073249;28;19919;-85
2022/08/02 13:53:20;;;;;;;;;;;28.00;46.00;;;;;;5054304;28;19917;-85
2022/08/02 13:55:45;;;;;;;;;;;28.00;45.70;;;;;;5072767;28;19946;-85
2022/08/02 13:58:11;;;;;;;;;;;28.00;45.80;;;;;;5068851;28;19919;-85
2022/08/02 14:00:36;;;;;;;;;;;28.10;46.20;;;;;;5068439;28;19921;-84
2022/08/02 14:03:03;;;;;;;;;;;28.10;46.60;;;;;;5050718;28;19932;-87
2022/08/02 14:05:31;;;;;;;;;;;28.00;46.70;;;;;;5069934;28;19992;-83
2022/08/02 14:07:57;;;;;;;;;;;28.00;46.30;;;;;;5073870;28;19924;-83
2022/08/02 14:10:24;;;;;;;;;;;28.10;45.80;;;;;;5054655;28;19921;-82
2022/08/02 14:12:50;;;;;;;;;;;28.20;44.70;;;;;;5055133;28;19913;-87
2022/08/02 14:15:15;;;;;;;;;;;28.20;44.90;;;;;;5053549;28;20375;-83
2022/08/02 14:17:41;;;;;;;;;;;28.10;45.50;;;;;;5073541;28;19916;-83
2022/08/02 14:20:06;;;;;;;;;;;28.10;44.40;;;;;;5056889;28;19958;-83
2022/08/02 14:22:32;;;;;;;;;;;28.20;44.50;;;;;;5063596;28;19962;-84
2022/08/02 14:24:57;;;;;;;;;;;28.20;44.60;;;;;;5077723;28;19919;-81